Time;durP1;ratioP1;P1;durP2;ratioP2;P2;SDS_P1;SDS_P2;PMS_P1;PMS_P2;Temp;Humidity;BMP_temperature;BMP_pressure;BME280_temperature;BME280_humidity;BME280_pressure;Samples;Min_cycle;Max_cycle;Signal;HPM_P1;HPM_P2
2023/01/24 00:02:13;;;;;;;26.83;18.30;;;2.20;99.90;;;;;;5069845;28;20409;-63
2023/01/24 00:04:41;;;;;;;26.20;18.42;;;2.20;99.90;;;;;;5070743;28;20466;-63
2023/01/24 00:07:07;;;;;;;28.30;17.80;;;2.20;99.90;;;;;;5064773;28;20531;-62
2023/01/24 00:09:34;;;;;;;27.27;18.42;;;2.30;99.90;;;;;;5067194;28;20413;-63
2023/01/24 00:12:01;;;;;;;28.40;18.30;;;2.30;99.90;;;;;;5066940;28;20897;-63
2023/01/24 00:14:28;;;;;;;29.05;18.77;;;2.30;99.90;;;;;;5067312;28;20416;-62
2023/01/24 00:16:54;;;;;;;27.60;17.73;;;2.30;99.90;;;;;;5067918;28;20516;-63
2023/01/24 00:19:21;;;;;;;28.58;18.20;;;2.30;99.90;;;;;;5069544;28;20501;-63
2023/01/24 00:21:49;;;;;;;26.38;17.75;;;2.30;99.90;;;;;;5068418;28;20410;-63
2023/01/24 00:24:16;;;;;;;25.73;17.17;;;2.30;99.90;;;;;;5067774;28;20499;-63
2023/01/24 00:26:43;;;;;;;27.60;16.77;;;2.30;99.90;;;;;;5064948;28;20420;-62
2023/01/24 00:29:09;;;;;;;25.17;16.30;;;2.30;99.90;;;;;;5069665;28;20419;-64
2023/01/24 00:31:36;;;;;;;25.02;17.08;;;2.30;99.90;;;;;;5070405;28;20435;-63
2023/01/24 00:34:03;;;;;;;25.73;17.20;;;2.30;99.90;;;;;;5072588;28;20925;-61
2023/01/24 00:36:30;;;;;;;25.00;15.80;;;2.30;99.90;;;;;;5068760;28;20436;-63
2023/01/24 00:38:58;;;;;;;23.98;16.10;;;2.30;99.90;;;;;;5060904;28;20413;-63
2023/01/24 00:41:25;;;;;;;23.35;15.95;;;2.30;99.90;;;;;;5059458;28;20520;-64
2023/01/24 00:43:52;;;;;;;22.35;15.52;;;2.30;99.90;;;;;;5059150;28;20431;-62
2023/01/24 00:46:18;;;;;;;22.10;15.63;;;2.30;99.90;;;;;;5059905;28;20869;-63
2023/01/24 00:48:45;;;;;;;21.65;15.10;;;2.30;99.90;;;;;;5064908;28;20423;-64
2023/01/24 00:51:12;;;;;;;21.63;15.40;;;2.30;99.90;;;;;;5065048;28;20417;-64
2023/01/24 00:53:39;;;;;;;22.27;14.75;;;2.30;99.90;;;;;;5064820;28;20437;-63
2023/01/24 00:56:08;;;;;;;22.38;14.43;;;2.30;99.90;;;;;;5063932;28;20429;-63
2023/01/24 00:58:35;;;;;;;18.77;13.68;;;2.30;99.90;;;;;;5063193;28;20440;-63
2023/01/24 01:01:03;;;;;;;20.90;14.45;;;2.30;99.90;;;;;;5064524;28;20413;-64
2023/01/24 01:03:30;;;;;;;19.60;14.35;;;2.30;99.90;;;;;;5060505;28;20412;-63
2023/01/24 01:06:01;;;;;;;20.77;13.63;;;2.30;99.90;;;;;;5058294;28;20410;-64
2023/01/24 01:08:27;;;;;;;19.17;13.80;;;2.30;99.90;;;;;;5058077;28;20413;-63
2023/01/24 01:10:54;;;;;;;19.35;13.85;;;2.30;99.90;;;;;;5064723;28;20863;-62
2023/01/24 01:13:22;;;;;;;19.67;14.13;;;2.30;99.90;;;;;;5071143;28;20423;-63
2023/01/24 01:15:49;;;;;;;20.65;14.95;;;2.30;99.90;;;;;;5071655;28;20798;-63
2023/01/24 01:18:16;;;;;;;18.08;13.00;;;2.30;99.90;;;;;;5071560;28;20423;-63
2023/01/24 01:20:49;;;;;;;18.73;13.50;;;2.30;99.90;;;;;;5072031;28;20420;-63
2023/01/24 01:23:15;;;;;;;19.80;13.63;;;2.30;99.90;;;;;;5073726;28;20470;-63
2023/01/24 01:25:42;;;;;;;19.98;13.80;;;2.30;99.90;;;;;;5072845;28;20469;-63
2023/01/24 01:28:09;;;;;;;20.08;13.90;;;2.30;99.90;;;;;;5073199;28;20414;-63
2023/01/24 01:30:37;;;;;;;19.30;13.80;;;2.30;99.90;;;;;;5069880;28;20427;-62
2023/01/24 01:33:04;;;;;;;18.37;13.50;;;2.30;99.90;;;;;;5067628;28;20826;-62
2023/01/24 01:35:31;;;;;;;20.70;14.02;;;2.30;99.90;;;;;;5067477;28;21004;-63
2023/01/24 01:37:57;;;;;;;19.80;13.10;;;2.30;99.90;;;;;;5067497;28;20418;-63
2023/01/24 01:40:24;;;;;;;17.90;12.55;;;2.40;99.90;;;;;;5066178;28;20416;-62
2023/01/24 01:42:53;;;;;;;17.35;12.25;;;2.30;99.90;;;;;;5068835;28;20417;-63
2023/01/24 01:45:40;;;;;;;16.85;11.93;;;2.30;99.90;;;;;;5066856;28;20795;-63
2023/01/24 01:48:23;;;;;;;18.27;12.60;;;2.40;99.90;;;;;;5064662;28;20424;-64
2023/01/24 01:51:00;;;;;;;15.27;12.07;;;2.40;99.90;;;;;;5064276;28;20417;-63
2023/01/24 01:53:32;;;;;;;15.30;11.05;;;2.40;99.90;;;;;;5064667;28;20419;-63
2023/01/24 01:56:05;;;;;;;16.40;12.10;;;2.40;99.90;;;;;;5062099;28;20431;-63
2023/01/24 01:58:33;;;;;;;13.02;11.00;;;2.40;99.90;;;;;;5064496;28;20420;-62
2023/01/24 02:01:02;;;;;;;12.52;9.90;;;2.40;99.90;;;;;;5063857;28;20424;-62
2023/01/24 02:03:39;;;;;;;14.07;10.18;;;2.40;99.90;;;;;;5064524;28;20409;-63
2023/01/24 02:06:11;;;;;;;14.25;9.98;;;2.50;99.90;;;;;;5067313;28;20459;-63
2023/01/24 02:08:40;;;;;;;13.40;10.05;;;2.40;99.90;;;;;;5066494;28;20420;-63
2023/01/24 02:16:02;;;;;;;13.73;10.43;;;2.50;99.90;;;;;;5064853;28;20451;-63
2023/01/24 02:16:41;;;;;;;13.70;10.13;;;2.50;99.90;;;;;;5062369;28;20510;-63
2023/01/24 02:19:20;;;;;;;13.55;10.13;;;2.50;99.90;;;;;;5068664;28;20414;-63
2023/01/24 02:21:49;;;;;;;14.02;10.20;;;2.50;99.90;;;;;;5070870;28;20417;-63
2023/01/24 02:24:22;;;;;;;15.00;10.73;;;2.50;99.90;;;;;;5070622;28;20452;-63
2023/01/24 02:26:50;;;;;;;13.15;9.73;;;2.50;99.90;;;;;;5066323;28;20433;-63
2023/01/24 02:29:18;;;;;;;12.23;9.50;;;2.60;99.90;;;;;;5060299;28;20545;-62
2023/01/24 02:31:54;;;;;;;12.38;8.68;;;2.50;99.90;;;;;;5058947;28;20420;-63
2023/01/24 02:34:21;;;;;;;12.18;9.02;;;2.50;99.90;;;;;;5058579;28;20789;-63
2023/01/24 02:36:53;;;;;;;11.63;9.20;;;2.50;99.90;;;;;;5059026;28;20425;-64
2023/01/24 02:39:24;;;;;;;12.98;9.40;;;2.50;99.90;;;;;;5060966;28;20939;-62
2023/01/24 02:41:56;;;;;;;12.30;9.60;;;2.50;99.90;;;;;;5061679;28;20552;-63
2023/01/24 02:44:29;;;;;;;11.73;9.20;;;2.50;99.90;;;;;;5061684;28;20405;-63
2023/01/24 02:46:56;;;;;;;13.85;9.68;;;2.50;99.90;;;;;;5060140;28;20409;-64
2023/01/24 02:49:22;;;;;;;12.95;9.30;;;2.50;99.90;;;;;;5058866;28;20419;-63
2023/01/24 02:54:33;;;;;;;13.32;10.00;;;2.60;99.90;;;;;;5058374;28;20769;-63
2023/01/24 02:59:46;;;;;;;14.65;9.80;;;2.60;99.90;;;;;;5056158;28;20401;-63
2023/01/24 03:02:12;;;;;;;13.50;9.23;;;2.60;99.90;;;;;;5055207;28;20409;-61
2023/01/24 03:04:39;;;;;;;13.80;9.70;;;2.60;99.90;;;;;;5053898;28;20410;-62
2023/01/24 03:07:06;;;;;;;12.02;9.10;;;2.60;99.90;;;;;;5056954;28;20409;-63
2023/01/24 03:09:38;;;;;;;12.75;9.68;;;2.60;99.90;;;;;;5056829;28;20906;-63
2023/01/24 03:36:46;;;;;;;12.95;9.63;;;2.60;99.90;;;;;;5057076;28;20428;-63
2023/01/24 03:41:57;;;;;;;14.23;9.68;;;2.60;99.90;;;;;;5056680;28;20427;-63
2023/01/24 03:44:25;;;;;;;11.50;8.70;;;2.70;99.90;;;;;;5054917;28;20413;-63
2023/01/24 03:46:52;;;;;;;11.77;9.60;;;2.60;99.90;;;;;;5055173;28;20413;-63
2023/01/24 03:49:19;;;;;;;13.10;9.75;;;2.60;99.90;;;;;;5054337;28;20416;-62
2023/01/24 03:54:29;;;;;;;11.98;8.90;;;2.60;99.90;;;;;;5054344;28;20466;-63
2023/01/24 03:56:56;;;;;;;11.77;9.40;;;2.70;99.90;;;;;;5054060;28;20429;-62
2023/01/24 03:59:24;;;;;;;13.07;9.85;;;2.70;99.90;;;;;;5054179;28;20484;-62
2023/01/24 04:01:51;;;;;;;11.68;8.68;;;2.70;99.90;;;;;;5053954;28;20428;-64
2023/01/24 04:04:18;;;;;;;13.00;9.57;;;2.70;99.90;;;;;;5054756;28;20535;-62
2023/01/24 04:06:45;;;;;;;11.82;9.40;;;2.70;99.90;;;;;;5054486;28;20412;-63
2023/01/24 04:11:02;;;;;;;13.25;9.30;;;2.70;99.90;;;;;;5091916;28;20357;-63
2023/01/24 04:13:29;;;;;;;11.73;9.13;;;2.70;99.90;;;;;;5091292;28;20426;-64
2023/01/24 04:15:55;;;;;;;11.15;8.73;;;2.70;99.90;;;;;;5091279;28;20506;-63
2023/01/24 04:18:22;;;;;;;13.10;9.27;;;2.70;99.90;;;;;;5091660;28;20488;-63
2023/01/24 04:20:49;;;;;;;11.90;9.20;;;2.70;99.90;;;;;;5091633;28;20441;-64
2023/01/24 04:23:27;;;;;;;11.40;8.73;;;2.70;99.90;;;;;;5092630;28;20419;-63
2023/01/24 04:25:57;;;;;;;11.63;8.40;;;2.70;99.90;;;;;;5091347;28;20407;-63
2023/01/24 04:28:26;;;;;;;12.47;8.60;;;2.70;99.90;;;;;;5092142;28;20482;-63
2023/01/24 04:30:57;;;;;;;10.50;8.27;;;2.70;99.90;;;;;;5092381;28;20429;-63
2023/01/24 04:33:24;;;;;;;11.57;8.50;;;2.70;99.90;;;;;;5092959;28;20414;-63
2023/01/24 04:35:50;;;;;;;10.90;7.93;;;2.70;99.90;;;;;;5092340;28;20502;-63
2023/01/24 04:38:17;;;;;;;11.15;8.50;;;2.70;99.90;;;;;;5092129;28;20430;-63
2023/01/24 04:40:44;;;;;;;11.25;8.40;;;2.60;99.90;;;;;;5092239;28;20409;-64
2023/01/24 04:43:11;;;;;;;10.40;8.15;;;2.60;99.90;;;;;;5091979;28;20421;-63
2023/01/24 04:45:39;;;;;;;10.95;8.05;;;2.60;99.90;;;;;;5091919;28;20450;-63
2023/01/24 04:48:06;;;;;;;9.40;7.43;;;2.60;99.90;;;;;;5092700;28;20411;-63
2023/01/24 04:50:33;;;;;;;11.20;8.30;;;2.60;99.90;;;;;;5092743;28;20427;-63
2023/01/24 04:53:00;;;;;;;11.20;8.20;;;2.60;99.90;;;;;;5094483;28;20419;-63
2023/01/24 04:55:27;;;;;;;9.85;7.80;;;2.70;99.90;;;;;;5093985;28;20417;-64
2023/01/24 04:57:53;;;;;;;13.52;8.02;;;2.60;99.90;;;;;;5095109;28;20417;-63
2023/01/24 05:00:20;;;;;;;10.60;8.40;;;2.60;99.90;;;;;;5096088;28;20406;-63
2023/01/24 05:02:51;;;;;;;9.55;7.40;;;2.60;99.90;;;;;;5096243;28;20407;-63
2023/01/24 05:05:18;;;;;;;9.93;7.18;;;2.60;99.90;;;;;;5096983;28;20411;-63
2023/01/24 05:07:44;;;;;;;9.93;7.65;;;2.60;99.90;;;;;;5097910;28;20419;-63
2023/01/24 05:10:11;;;;;;;8.95;7.38;;;2.60;99.90;;;;;;5112284;28;20436;-63
2023/01/24 05:12:38;;;;;;;9.77;7.20;;;2.60;99.90;;;;;;5118895;28;20405;-63
2023/01/24 05:15:06;;;;;;;10.43;7.90;;;2.60;99.90;;;;;;5120087;28;20405;-64
2023/01/24 05:17:33;;;;;;;11.32;7.80;;;2.60;99.90;;;;;;5121787;28;20433;-64
2023/01/24 05:20:01;;;;;;;7.93;6.80;;;2.60;99.90;;;;;;5121346;28;20406;-63
2023/01/24 05:22:29;;;;;;;10.25;7.75;;;2.60;99.90;;;;;;5106672;28;20428;-64
2023/01/24 05:24:55;;;;;;;8.05;7.05;;;2.60;99.90;;;;;;5106645;28;20440;-63
2023/01/24 05:27:22;;;;;;;9.38;7.45;;;2.60;99.90;;;;;;5109025;28;20413;-64
2023/01/24 05:29:49;;;;;;;8.85;7.57;;;2.60;99.90;;;;;;5110700;28;20432;-64
2023/01/24 05:32:16;;;;;;;10.13;7.68;;;2.60;99.90;;;;;;5112370;28;20434;-64
2023/01/24 05:34:42;;;;;;;9.75;7.90;;;2.60;99.90;;;;;;5108600;28;20405;-63
2023/01/24 05:37:10;;;;;;;9.90;8.10;;;2.60;99.90;;;;;;5108770;28;20416;-63
2023/01/24 05:39:37;;;;;;;9.40;7.57;;;2.60;99.90;;;;;;5106152;28;20406;-64
2023/01/24 05:42:04;;;;;;;8.73;7.65;;;2.60;99.90;;;;;;5094951;28;20422;-63
2023/01/24 05:44:31;;;;;;;11.18;7.65;;;2.60;99.90;;;;;;5094653;28;20430;-63
2023/01/24 05:46:58;;;;;;;9.77;8.10;;;2.60;99.90;;;;;;5086140;28;20415;-61
2023/01/24 05:49:24;;;;;;;9.00;7.57;;;2.60;99.90;;;;;;5090652;28;20430;-63
2023/01/24 05:51:51;;;;;;;9.13;7.30;;;2.60;99.90;;;;;;5106741;28;20436;-64
2023/01/24 05:54:19;;;;;;;8.85;7.60;;;2.60;99.90;;;;;;5090788;28;20430;-63
2023/01/24 05:56:46;;;;;;;11.35;8.02;;;2.60;99.90;;;;;;5095151;28;20481;-64
2023/01/24 05:59:13;;;;;;;10.10;8.20;;;2.60;99.90;;;;;;5100267;28;20424;-63
2023/01/24 06:01:40;;;;;;;9.13;7.20;;;2.60;99.90;;;;;;5103614;28;20785;-64
2023/01/24 06:04:07;;;;;;;8.65;7.15;;;2.60;99.90;;;;;;5104909;28;20430;-62
2023/01/24 06:06:34;;;;;;;10.43;7.23;;;2.50;99.90;;;;;;5083732;28;20430;-64
2023/01/24 06:09:00;;;;;;;8.70;6.78;;;2.50;99.90;;;;;;5088917;28;20427;-63
2023/01/24 06:11:29;;;;;;;8.27;6.93;;;2.50;99.90;;;;;;5090438;28;20489;-63
2023/01/24 06:13:56;;;;;;;7.50;6.73;;;2.50;99.90;;;;;;5082162;28;20466;-64
2023/01/24 06:16:25;;;;;;;9.88;7.57;;;2.40;99.90;;;;;;5078268;28;20416;-63
2023/01/24 06:18:53;;;;;;;8.63;7.53;;;2.40;99.90;;;;;;5090609;28;20436;-63
2023/01/24 06:21:33;;;;;;;10.35;8.27;;;2.40;99.90;;;;;;5088811;28;20412;-63
2023/01/24 06:24:01;;;;;;;9.10;7.57;;;2.50;99.90;;;;;;5090609;28;20431;-64
2023/01/24 06:26:30;;;;;;;10.10;7.80;;;2.50;99.90;;;;;;5103326;28;20832;-64
2023/01/24 06:28:57;;;;;;;9.13;8.10;;;2.50;99.90;;;;;;5100995;28;20410;-65
2023/01/24 06:31:33;;;;;;;8.13;7.20;;;2.50;99.90;;;;;;5101466;28;20426;-63
2023/01/24 06:34:19;;;;;;;9.05;8.07;;;2.50;99.90;;;;;;5085466;28;20842;-63
2023/01/24 06:37:00;;;;;;;8.05;6.82;;;2.50;99.90;;;;;;5077542;28;20413;-63
2023/01/24 06:39:28;;;;;;;9.13;7.47;;;2.50;99.90;;;;;;5078968;28;20903;-63
2023/01/24 06:41:56;;;;;;;9.00;7.60;;;2.50;99.90;;;;;;5080093;28;20425;-63
2023/01/24 06:44:24;;;;;;;9.60;7.10;;;2.50;99.90;;;;;;5083031;28;20431;-63
2023/01/24 06:46:51;;;;;;;8.55;6.75;;;2.50;99.90;;;;;;5096653;28;20414;-63
2023/01/24 06:49:18;;;;;;;12.00;7.63;;;2.40;99.90;;;;;;5093744;28;20783;-64
2023/01/24 06:51:50;;;;;;;9.98;7.97;;;2.40;99.90;;;;;;5089886;28;20426;-63
2023/01/24 06:54:17;;;;;;;9.98;7.50;;;2.40;99.90;;;;;;5096367;28;20426;-64
2023/01/24 06:56:44;;;;;;;7.90;7.10;;;2.50;99.90;;;;;;5096680;28;20418;-63
2023/01/24 06:59:12;;;;;;;8.77;7.10;;;2.40;99.90;;;;;;5085439;28;20426;-64
2023/01/24 07:01:38;;;;;;;8.30;6.75;;;2.50;99.90;;;;;;5097234;28;20444;-64
2023/01/24 07:04:05;;;;;;;8.23;6.10;;;2.50;99.90;;;;;;5096178;28;20429;-63
2023/01/24 07:06:32;;;;;;;8.00;6.35;;;2.40;99.90;;;;;;5096374;28;20877;-63
2023/01/24 07:08:59;;;;;;;7.30;5.90;;;2.40;99.90;;;;;;5095396;28;20429;-62
2023/01/24 07:11:25;;;;;;;7.38;6.20;;;2.40;99.90;;;;;;5095688;28;20422;-64
2023/01/24 07:13:52;;;;;;;8.70;7.28;;;2.40;99.90;;;;;;5095678;28;20870;-64
2023/01/24 07:16:20;;;;;;;6.20;5.60;;;2.40;99.90;;;;;;5096304;28;20414;-65
2023/01/24 07:18:48;;;;;;;7.40;6.22;;;2.40;99.90;;;;;;5099425;28;20424;-64
2023/01/24 07:21:15;;;;;;;7.53;6.60;;;2.40;99.90;;;;;;5096895;28;20406;-63
2023/01/24 07:23:45;;;;;;;9.30;7.23;;;2.40;99.90;;;;;;5097672;28;20409;-62
2023/01/24 07:26:12;;;;;;;8.40;6.80;;;2.40;99.90;;;;;;5098657;28;20496;-63
2023/01/24 07:28:39;;;;;;;7.78;6.90;;;2.40;99.90;;;;;;5096215;28;20413;-63
2023/01/24 07:31:06;;;;;;;7.50;6.55;;;2.40;99.90;;;;;;5096040;28;20428;-63
2023/01/24 07:33:35;;;;;;;6.67;5.30;;;2.40;99.90;;;;;;5095413;28;20406;-64
2023/01/24 07:36:01;;;;;;;7.30;5.88;;;2.40;99.90;;;;;;5094777;28;20417;-64
2023/01/24 07:38:28;;;;;;;8.35;6.53;;;2.40;99.90;;;;;;5094284;28;20409;-63
2023/01/24 07:40:55;;;;;;;6.57;5.35;;;2.30;99.90;;;;;;5094580;28;20409;-63
2023/01/24 07:43:22;;;;;;;6.65;5.95;;;2.30;99.90;;;;;;5094755;28;20406;-61
2023/01/24 07:45:48;;;;;;;6.63;5.85;;;2.30;99.90;;;;;;5096082;28;20412;-64
2023/01/24 07:48:15;;;;;;;8.95;5.60;;;2.30;99.90;;;;;;5095957;28;20406;-63
2023/01/24 07:50:43;;;;;;;8.33;6.87;;;2.30;99.90;;;;;;5094592;28;20432;-62
2023/01/24 07:53:10;;;;;;;8.10;5.80;;;2.30;99.90;;;;;;5094347;28;20425;-63
2023/01/24 07:55:37;;;;;;;7.35;6.50;;;2.30;99.90;;;;;;5094168;28;20417;-63
2023/01/24 07:58:04;;;;;;;7.30;5.85;;;2.30;99.90;;;;;;5094689;28;20438;-63
2023/01/24 08:00:31;;;;;;;7.53;5.70;;;2.30;99.90;;;;;;5093823;28;20405;-63
2023/01/24 08:02:58;;;;;;;6.30;5.40;;;2.30;99.90;;;;;;5094008;28;20410;-63
2023/01/24 08:05:25;;;;;;;7.03;6.13;;;2.30;99.90;;;;;;5093704;28;20868;-63
2023/01/24 08:07:54;;;;;;;6.43;5.70;;;2.30;99.90;;;;;;5096752;28;20424;-64
2023/01/24 08:10:21;;;;;;;6.20;5.60;;;2.20;99.90;;;;;;5093951;28;20422;-63
2023/01/24 08:12:49;;;;;;;6.90;6.20;;;2.30;99.90;;;;;;5096219;28;20947;-63
2023/01/24 08:15:15;;;;;;;6.30;5.00;;;2.30;99.90;;;;;;5095119;28;20868;-62
2023/01/24 08:17:42;;;;;;;6.32;5.22;;;2.30;99.90;;;;;;5093991;28;20410;-62
2023/01/24 08:20:10;;;;;;;6.45;5.78;;;2.30;99.90;;;;;;5096204;28;20409;-62
2023/01/24 08:22:39;;;;;;;6.82;5.47;;;2.30;99.90;;;;;;5095533;28;20410;-63
2023/01/24 08:25:08;;;;;;;6.43;5.43;;;2.30;99.90;;;;;;5097923;28;20421;-63
2023/01/24 08:27:35;;;;;;;6.25;5.53;;;2.30;99.90;;;;;;5095324;28;20412;-63
2023/01/24 08:30:04;;;;;;;7.95;6.30;;;2.30;99.90;;;;;;5094312;28;20416;-63
2023/01/24 08:32:32;;;;;;;6.60;5.90;;;2.30;99.90;;;;;;5094398;28;20409;-63
2023/01/24 08:34:59;;;;;;;5.75;5.15;;;2.30;99.90;;;;;;5094348;28;20413;-64
2023/01/24 08:37:25;;;;;;;6.85;5.80;;;2.30;99.90;;;;;;5094683;28;20420;-63
2023/01/24 08:39:52;;;;;;;8.27;6.00;;;2.30;99.90;;;;;;5096077;28;20423;-63
2023/01/24 08:42:20;;;;;;;7.30;5.82;;;2.30;99.90;;;;;;5095571;28;20912;-62
2023/01/24 08:44:47;;;;;;;5.75;5.20;;;2.30;99.90;;;;;;5094735;28;20409;-63
2023/01/24 08:47:14;;;;;;;7.38;5.80;;;2.30;99.90;;;;;;5097631;28;20413;-65
2023/01/24 08:49:41;;;;;;;6.50;5.90;;;2.30;99.90;;;;;;5097640;28;20496;-67
2023/01/24 08:52:08;;;;;;;8.02;5.60;;;2.30;99.90;;;;;;5096740;28;20913;-64
2023/01/24 08:54:36;;;;;;;6.37;5.60;;;2.30;99.90;;;;;;5096193;28;20418;-64
2023/01/24 08:57:03;;;;;;;7.15;5.82;;;2.30;99.90;;;;;;5096657;28;20413;-63
2023/01/24 08:59:31;;;;;;;9.13;6.38;;;2.30;99.90;;;;;;5098461;28;20420;-63
2023/01/24 09:01:58;;;;;;;8.60;5.40;;;2.20;99.90;;;;;;5099322;28;20431;-63
2023/01/24 09:04:26;;;;;;;7.00;5.75;;;2.20;99.90;;;;;;5109543;28;20417;-64
2023/01/24 09:06:53;;;;;;;6.35;5.75;;;2.30;99.90;;;;;;5107292;28;20912;-62
2023/01/24 09:09:20;;;;;;;7.40;5.63;;;2.30;99.90;;;;;;5107070;28;20418;-63
2023/01/24 09:11:46;;;;;;;7.85;6.10;;;2.30;99.90;;;;;;5110228;28;20426;-63
2023/01/24 09:14:13;;;;;;;6.55;5.50;;;2.30;99.90;;;;;;5111475;28;20410;-63
2023/01/24 09:16:41;;;;;;;6.60;5.90;;;2.30;99.90;;;;;;5112854;28;20416;-63
2023/01/24 09:19:08;;;;;;;8.95;5.93;;;2.20;99.90;;;;;;5109700;28;20410;-63
2023/01/24 09:21:35;;;;;;;6.00;5.40;;;2.20;99.90;;;;;;5107843;28;20410;-63
2023/01/24 09:24:01;;;;;;;7.00;6.00;;;2.30;99.90;;;;;;5109100;28;20412;-63
2023/01/24 09:26:28;;;;;;;8.30;6.53;;;2.30;99.90;;;;;;5110411;28;20410;-63
2023/01/24 09:28:56;;;;;;;7.90;7.10;;;2.30;99.90;;;;;;5110135;28;20402;-63
2023/01/24 09:31:22;;;;;;;7.57;6.45;;;2.30;99.90;;;;;;5105466;28;20440;-63
2023/01/24 09:33:50;;;;;;;7.28;6.53;;;2.30;99.90;;;;;;5099721;28;20425;-63
2023/01/24 09:36:17;;;;;;;8.18;6.60;;;2.30;99.90;;;;;;5100024;28;20417;-63
2023/01/24 09:38:44;;;;;;;7.22;6.40;;;2.30;99.90;;;;;;5098105;28;20410;-63
2023/01/24 09:41:21;;;;;;;7.50;6.57;;;2.30;99.90;;;;;;5096206;28;20904;-62
2023/01/24 09:43:52;;;;;;;8.07;7.03;;;2.30;99.90;;;;;;5101022;28;20456;-63
2023/01/24 09:46:28;;;;;;;7.80;6.75;;;2.30;99.90;;;;;;5100521;28;20409;-63
2023/01/24 09:49:03;;;;;;;6.40;5.80;;;2.40;99.90;;;;;;5098086;28;20406;-62
2023/01/24 09:51:33;;;;;;;6.70;5.80;;;2.40;99.90;;;;;;5100657;28;20428;-64
2023/01/24 09:54:03;;;;;;;6.78;6.18;;;2.40;99.90;;;;;;5100583;28;20483;-63
2023/01/24 09:56:34;;;;;;;7.10;6.40;;;2.40;99.90;;;;;;5101289;28;20993;-63
2023/01/24 09:59:17;;;;;;;7.33;6.63;;;2.40;99.90;;;;;;5099227;28;20501;-63
2023/01/24 10:01:44;;;;;;;8.80;6.40;;;2.40;99.90;;;;;;5096050;28;20406;-63
2023/01/24 10:04:17;;;;;;;7.40;6.60;;;2.50;99.90;;;;;;5096445;28;20429;-63
2023/01/24 10:07:01;;;;;;;7.18;6.43;;;2.50;99.90;;;;;;5095612;28;20410;-63
2023/01/24 10:09:36;;;;;;;7.38;6.65;;;2.50;99.90;;;;;;5096801;28;20421;-64
2023/01/24 10:12:14;;;;;;;7.35;6.35;;;2.50;99.90;;;;;;5097588;28;20428;-64
2023/01/24 10:14:55;;;;;;;7.10;6.00;;;2.50;99.90;;;;;;5096832;28;20782;-63
2023/01/24 10:18:03;;;;;;;7.90;5.88;;;2.60;99.90;;;;;;5099025;28;20874;-64
2023/01/24 10:20:45;;;;;;;7.10;6.18;;;2.60;99.90;;;;;;5099003;28;20410;-63
2023/01/24 10:23:17;;;;;;;7.95;7.13;;;2.70;99.90;;;;;;5098791;28;20416;-63
2023/01/24 10:25:52;;;;;;;7.57;6.70;;;2.80;99.90;;;;;;5099153;28;20845;-63
2023/01/24 10:28:23;;;;;;;8.60;7.47;;;2.80;99.90;;;;;;5096901;28;20832;-64
2023/01/24 10:30:55;;;;;;;7.53;6.63;;;2.90;99.90;;;;;;5097754;28;20441;-63
2023/01/24 10:33:27;;;;;;;7.10;6.40;;;3.00;99.90;;;;;;5098292;28;20500;-63
2023/01/24 10:35:59;;;;;;;6.95;5.72;;;3.10;99.90;;;;;;5097717;28;20453;-63
2023/01/24 10:38:26;;;;;;;5.85;5.20;;;3.20;99.90;;;;;;5096915;28;20893;-62
2023/01/24 10:40:56;;;;;;;8.40;6.35;;;3.20;99.90;;;;;;5096671;28;20421;-63
2023/01/24 10:43:26;;;;;;;6.78;6.00;;;3.20;99.90;;;;;;5096809;28;20414;-62
2023/01/24 10:46:18;;;;;;;7.43;6.20;;;3.20;99.90;;;;;;5096597;28;20413;-63
2023/01/24 10:48:49;;;;;;;6.30;5.70;;;3.20;99.90;;;;;;5096293;28;20418;-62
2023/01/24 10:51:19;;;;;;;9.80;6.10;;;3.20;99.90;;;;;;5096422;28;20421;-63
2023/01/24 10:53:47;;;;;;;6.72;5.78;;;3.30;99.90;;;;;;5096334;28;20421;-64
2023/01/24 10:56:16;;;;;;;6.28;5.53;;;3.40;99.90;;;;;;5095976;28;20417;-63
2023/01/24 10:58:54;;;;;;;5.00;4.40;;;3.40;99.90;;;;;;5095601;28;20406;-64
2023/01/24 11:01:23;;;;;;;4.70;4.30;;;3.40;99.90;;;;;;5095534;28;20410;-64
2023/01/24 11:03:52;;;;;;;5.60;4.63;;;3.40;99.90;;;;;;5094684;28;20417;-64
2023/01/24 11:06:33;;;;;;;6.55;5.10;;;3.40;99.90;;;;;;5095177;28;20505;-63
2023/01/24 11:09:09;;;;;;;6.50;5.45;;;3.40;99.90;;;;;;5095566;28;20402;-63
2023/01/24 11:11:43;;;;;;;6.00;5.28;;;3.50;99.90;;;;;;5115030;28;20424;-63
2023/01/24 11:14:14;;;;;;;5.90;5.35;;;3.40;99.90;;;;;;5122746;27;20460;-63
2023/01/24 11:16:43;;;;;;;5.50;4.90;;;3.40;99.90;;;;;;5135809;27;20763;-62
2023/01/24 11:19:26;;;;;;;5.93;5.10;;;3.40;99.90;;;;;;5113358;27;20848;-63
2023/01/24 11:21:56;;;;;;;6.00;5.00;;;3.40;99.90;;;;;;5064911;28;20420;-63
2023/01/24 11:29:25;;;;;;;4.70;4.20;;;3.40;99.90;;;;;;5175878;27;20381;-63
2023/01/24 11:31:53;;;;;;;6.15;5.55;;;3.40;99.90;;;;;;5140965;27;20794;-63
2023/01/24 11:34:50;;;;;;;4.93;4.43;;;3.40;99.60;;;;;;5135758;28;20478;-64
2023/01/24 11:40:36;;;;;;;4.80;4.10;;;3.50;99.20;;;;;;5094531;28;20351;-64
2023/01/24 11:43:25;;;;;;;6.10;4.70;;;3.40;98.50;;;;;;5093395;28;20410;-63
2023/01/24 11:46:16;;;;;;;4.60;4.10;;;3.40;98.30;;;;;;5092589;28;20422;-64
2023/01/24 11:48:52;;;;;;;5.47;4.65;;;3.40;98.70;;;;;;5092700;28;20423;-63
2023/01/24 11:51:26;;;;;;;4.90;4.40;;;3.40;98.40;;;;;;5092741;28;20526;-62
2023/01/24 11:54:13;;;;;;;5.10;4.47;;;3.40;98.70;;;;;;5095304;28;20425;-64
2023/01/24 11:56:51;;;;;;;4.93;4.43;;;3.30;98.70;;;;;;5094991;28;20443;-62
2023/01/24 11:59:46;;;;;;;5.40;4.90;;;3.30;98.80;;;;;;5094096;28;20793;-62
2023/01/24 12:02:38;;;;;;;5.30;4.38;;;3.20;99.10;;;;;;5087046;28;20419;-63
2023/01/24 12:05:41;;;;;;;5.70;4.40;;;3.20;99.40;;;;;;5094917;28;20426;-63
2023/01/24 12:08:26;;;;;;;4.53;4.13;;;3.20;99.60;;;;;;5094360;28;20433;-64
2023/01/24 12:11:01;;;;;;;4.63;4.13;;;3.30;99.20;;;;;;5094294;28;20417;-62
2023/01/24 12:13:40;;;;;;;5.20;4.70;;;3.20;98.70;;;;;;5095490;28;20846;-64
2023/01/24 12:16:19;;;;;;;5.50;4.18;;;3.20;98.90;;;;;;5095062;28;20433;-63
2023/01/24 12:19:02;;;;;;;5.00;4.47;;;3.10;99.10;;;;;;5094148;28;20931;-64
2023/01/24 12:21:29;;;;;;;7.28;5.10;;;3.20;99.30;;;;;;5085683;28;20427;-63
2023/01/24 12:24:01;;;;;;;5.40;4.10;;;3.20;99.60;;;;;;5076125;28;20428;-63
2023/01/24 12:26:30;;;;;;;5.85;4.85;;;3.30;99.50;;;;;;5072867;28;20432;-64
2023/01/24 12:29:04;;;;;;;5.28;4.78;;;3.30;99.40;;;;;;5076022;28;20440;-64
2023/01/24 12:31:46;;;;;;;5.72;4.90;;;3.40;99.90;;;;;;5076306;28;20428;-64
2023/01/24 12:34:30;;;;;;;5.50;5.00;;;3.50;99.40;;;;;;5069749;28;20425;-64
2023/01/24 12:37:01;;;;;;;6.75;5.30;;;3.60;99.70;;;;;;5070154;28;20437;-63
2023/01/24 12:39:35;;;;;;;6.72;5.10;;;3.70;99.50;;;;;;5091945;28;20436;-63
2023/01/24 12:42:12;;;;;;;5.75;5.15;;;3.60;99.00;;;;;;5110890;28;20425;-63
2023/01/24 12:44:47;;;;;;;5.60;4.95;;;3.60;98.80;;;;;;5126865;28;20779;-63
2023/01/24 12:47:24;;;;;;;5.53;4.80;;;3.50;99.20;;;;;;5071145;28;20437;-63
2023/01/24 12:50:05;;;;;;;6.07;5.33;;;3.50;99.20;;;;;;4855540;29;20805;-63
2023/01/24 12:52:39;;;;;;;5.95;5.10;;;3.40;99.00;;;;;;4805163;29;20525;-62
2023/01/24 12:58:37;;;;;;;6.10;5.50;;;3.30;99.30;;;;;;5164186;27;20382;-63
2023/01/24 13:01:22;;;;;;;7.10;6.30;;;3.20;99.60;;;;;;5137692;27;20417;-65
2023/01/24 13:04:01;;;;;;;6.27;5.67;;;3.20;99.80;;;;;;5055806;28;20415;-62
2023/01/24 13:06:37;;;;;;;6.88;5.75;;;3.20;99.90;;;;;;5055712;28;20457;-61
2023/01/24 13:09:15;;;;;;;5.95;5.35;;;3.20;99.90;;;;;;4977252;28;20214;-62
2023/01/24 13:11:45;;;;;;;6.57;5.60;;;3.30;99.90;;;;;;4869904;29;20227;-64
2023/01/24 13:19:25;;;;;;;5.13;4.55;;;3.30;99.90;;;;;;5175387;27;20529;-64
2023/01/24 13:22:00;;;;;;;6.88;5.03;;;3.30;99.90;;;;;;5123104;28;20222;-63
2023/01/24 13:24:48;;;;;;;6.50;5.38;;;3.30;99.90;;;;;;5131892;28;20227;-64
2023/01/24 13:27:36;;;;;;;8.70;5.95;;;3.30;99.90;;;;;;5059653;28;20297;-62
2023/01/24 13:30:16;;;;;;;6.55;5.88;;;3.40;99.90;;;;;;4968112;28;20214;-63
2023/01/24 13:37:41;;;;;;;6.65;4.90;;;3.40;99.90;;;;;;5175185;27;20308;-64
2023/01/24 13:40:22;;;;;;;5.85;5.25;;;3.40;99.90;;;;;;5153297;27;20198;-64
2023/01/24 13:42:48;;;;;;;8.20;5.57;;;3.30;99.90;;;;;;5097273;28;20205;-64
2023/01/24 13:45:48;;;;;;;7.30;5.78;;;3.20;99.90;;;;;;4967315;28;20690;-63
2023/01/24 13:48:43;;;;;;;6.32;5.45;;;3.20;99.90;;;;;;4838476;29;20213;-64
2023/01/24 13:57:18;;;;;;;7.93;5.50;;;3.00;99.90;;;;;;5196839;27;20858;-62
2023/01/24 14:00:01;;;;;;;7.30;5.95;;;2.80;99.90;;;;;;5160340;27;20201;-63
2023/01/24 14:02:29;;;;;;;7.65;6.05;;;2.70;99.90;;;;;;5140950;27;20230;-62
2023/01/24 14:04:55;;;;;;;7.10;5.78;;;2.70;99.90;;;;;;5152982;27;20610;-63
2023/01/24 14:07:28;;;;;;;10.57;7.28;;;2.60;99.90;;;;;;5124666;27;20222;-62
2023/01/24 14:09:58;;;;;;;13.00;7.35;;;2.50;99.90;;;;;;5106680;28;20210;-62
2023/01/24 14:12:25;;;;;;;10.98;6.90;;;2.50;99.90;;;;;;5121836;28;20668;-63
2023/01/24 14:18:50;;;;;;;6.72;4.80;;;2.60;99.90;;;;;;5153780;27;20827;-61
2023/01/24 14:21:18;;;;;;;6.63;5.95;;;2.70;99.90;;;;;;5123669;28;20219;-63